Time;durP1;ratioP1;P1;durP2;ratioP2;P2;SDS_P1;SDS_P2;PMS_P1;PMS_P2;Temp;Humidity;BMP_temperature;BMP_pressure;BME280_temperature;BME280_humidity;BME280_pressure;Samples;Min_cycle;Max_cycle;Signal;HPM_P1;HPM_P2
2022/09/14 00:00:52;;;;;;;5.35;1.08;;;10.40;99.90;;;;;;5044328;28;20529;-53
2022/09/14 00:03:18;;;;;;;7.07;1.23;;;10.30;99.90;;;;;;5043802;28;20053;-53
2022/09/14 00:05:44;;;;;;;4.07;1.00;;;10.30;99.90;;;;;;5043252;28;20076;-53
2022/09/14 00:08:09;;;;;;;5.97;0.80;;;10.10;99.90;;;;;;5043080;28;20139;-51
2022/09/14 00:10:43;;;;;;;3.25;1.13;;;10.20;99.90;;;;;;5042749;28;20041;-51
2022/09/14 00:13:10;;;;;;;3.38;1.02;;;10.20;99.90;;;;;;5042672;28;20557;-53
2022/09/14 00:15:41;;;;;;;4.57;0.85;;;10.20;99.90;;;;;;5042304;28;20359;-53
2022/09/14 00:18:09;;;;;;;4.40;0.80;;;10.10;99.90;;;;;;5042400;28;20037;-52
2022/09/14 00:20:34;;;;;;;2.72;1.10;;;10.10;99.90;;;;;;5042172;28;20041;-53
2022/09/14 00:23:00;;;;;;;4.60;1.00;;;10.10;99.90;;;;;;5042550;28;20360;-51
2022/09/14 00:25:26;;;;;;;6.30;1.10;;;10.40;99.90;;;;;;5044472;28;20048;-48
2022/09/14 00:27:53;;;;;;;8.18;0.90;;;10.30;99.90;;;;;;5045466;28;20037;-49
2022/09/14 00:30:19;;;;;;;4.15;1.73;;;10.10;99.90;;;;;;5044996;28;20049;-51
2022/09/14 00:32:45;;;;;;;4.70;1.80;;;10.10;99.90;;;;;;5044727;28;20483;-52
2022/09/14 00:35:11;;;;;;;5.65;2.10;;;11.10;99.90;;;;;;5044624;28;20114;-52
2022/09/14 00:37:38;;;;;;;2.60;1.02;;;10.00;99.90;;;;;;5044297;28;20083;-52
2022/09/14 00:40:04;;;;;;;4.60;1.40;;;10.20;99.90;;;;;;5044623;28;20049;-50
2022/09/14 00:42:30;;;;;;;4.40;1.50;;;10.10;99.90;;;;;;5044505;28;20490;-52
2022/09/14 00:45:18;;;;;;;7.03;1.52;;;10.10;99.90;;;;;;5044602;28;20095;-51
2022/09/14 00:47:46;;;;;;;5.53;1.45;;;10.10;99.90;;;;;;5047956;28;20044;-52
2022/09/14 00:50:12;;;;;;;9.18;1.85;;;10.80;99.90;;;;;;5047957;28;20086;-52
2022/09/14 00:52:42;;;;;;;6.30;1.90;;;10.20;99.90;;;;;;5048025;28;20040;-53
2022/09/14 00:55:13;;;;;;;5.72;1.70;;;10.20;99.90;;;;;;5026071;28;20641;-52
2022/09/14 00:57:57;;;;;;;5.53;1.70;;;10.20;99.90;;;;;;5048016;28;20127;-53
2022/09/14 01:00:26;;;;;;;6.18;1.70;;;10.20;99.90;;;;;;5047724;28;20673;-52
2022/09/14 01:02:52;;;;;;;9.68;1.88;;;10.20;99.90;;;;;;5048605;28;20033;-51
2022/09/14 01:05:20;;;;;;;5.10;1.48;;;10.50;99.90;;;;;;5048046;28;20114;-51
2022/09/14 01:08:11;;;;;;;3.03;1.58;;;10.20;99.90;;;;;;5045199;28;20060;-51
2022/09/14 01:10:50;;;;;;;8.07;1.98;;;10.20;99.90;;;;;;5046703;28;20048;-51
2022/09/14 01:13:32;;;;;;;7.82;1.90;;;10.20;99.90;;;;;;5046915;28;20051;-53
2022/09/14 01:16:24;;;;;;;4.40;1.90;;;10.20;99.90;;;;;;5047206;28;20095;-51
2022/09/14 01:18:56;;;;;;;5.35;1.70;;;10.20;99.90;;;;;;5045651;28;20129;-53
2022/09/14 01:21:32;;;;;;;7.65;2.58;;;10.20;99.90;;;;;;5047885;28;20085;-52
2022/09/14 01:24:23;;;;;;;6.15;1.92;;;10.20;99.90;;;;;;5047652;28;20120;-51
2022/09/14 01:26:57;;;;;;;8.85;2.42;;;10.10;99.90;;;;;;5045735;28;20104;-51
2022/09/14 01:29:48;;;;;;;10.48;2.22;;;10.50;99.90;;;;;;5047958;28;20568;-52
2022/09/14 01:32:35;;;;;;;4.78;2.35;;;10.00;99.90;;;;;;5046739;28;20392;-52
2022/09/14 01:35:10;;;;;;;4.57;2.50;;;10.00;99.90;;;;;;5047650;28;20029;-52
2022/09/14 01:37:42;;;;;;;3.67;2.25;;;9.90;99.90;;;;;;5048035;28;20041;-49
2022/09/14 01:40:21;;;;;;;5.90;1.97;;;9.90;99.90;;;;;;5045487;28;20475;-53
2022/09/14 01:42:53;;;;;;;6.57;2.15;;;9.90;99.90;;;;;;5044536;28;20761;-52
2022/09/14 01:45:22;;;;;;;7.72;2.70;;;9.90;99.90;;;;;;5047241;28;20051;-52
2022/09/14 01:48:02;;;;;;;4.90;2.35;;;9.70;99.90;;;;;;5044860;28;20029;-50
2022/09/14 01:50:50;;;;;;;8.55;2.65;;;9.90;99.90;;;;;;5044838;28;20047;-52
2022/09/14 01:53:41;;;;;;;7.13;2.40;;;10.00;99.90;;;;;;5046425;28;20059;-52
2022/09/14 01:56:20;;;;;;;9.15;2.70;;;10.00;99.90;;;;;;5044861;28;20048;-53
2022/09/14 01:58:55;;;;;;;10.05;2.85;;;9.70;99.90;;;;;;5043749;28;20052;-52
2022/09/14 02:01:31;;;;;;;5.03;2.47;;;10.00;99.90;;;;;;5047057;28;20083;-53
2022/09/14 02:04:02;;;;;;;8.90;2.83;;;10.00;99.90;;;;;;5047385;28;20365;-50
2022/09/14 02:06:42;;;;;;;5.70;2.80;;;10.00;99.90;;;;;;5045091;28;20059;-53
2022/09/14 02:09:10;;;;;;;8.77;2.97;;;10.00;99.90;;;;;;5044473;28;20045;-53
2022/09/14 02:11:37;;;;;;;7.85;2.60;;;9.90;99.90;;;;;;5047069;28;20124;-52
2022/09/14 02:14:04;;;;;;;8.32;3.50;;;10.00;99.90;;;;;;5046667;28;20029;-52
2022/09/14 02:16:29;;;;;;;5.95;2.83;;;10.30;99.90;;;;;;5047217;28;20422;-50
2022/09/14 02:18:55;;;;;;;7.78;2.80;;;10.10;99.90;;;;;;5047192;28;20064;-52
2022/09/14 02:21:25;;;;;;;7.38;3.08;;;10.10;99.90;;;;;;5047269;28;20483;-53
2022/09/14 02:23:52;;;;;;;6.63;3.00;;;10.10;99.90;;;;;;5046524;28;20041;-52
2022/09/14 02:26:20;;;;;;;9.32;3.17;;;10.10;99.90;;;;;;5046735;28;20067;-54
2022/09/14 02:28:46;;;;;;;5.95;2.50;;;10.20;99.90;;;;;;5046405;28;20037;-54
2022/09/14 02:31:16;;;;;;;8.23;2.83;;;10.20;99.90;;;;;;5046498;28;20051;-49
2022/09/14 02:34:09;;;;;;;12.05;2.85;;;10.20;99.90;;;;;;5046472;28;20072;-51
2022/09/14 02:36:50;;;;;;;5.47;2.45;;;10.20;99.90;;;;;;5045164;28;20041;-53
2022/09/14 02:39:49;;;;;;;6.45;2.80;;;10.20;99.90;;;;;;5045241;28;20127;-52
2022/09/14 02:42:30;;;;;;;4.60;2.80;;;10.30;99.90;;;;;;5045121;28;20466;-52
2022/09/14 02:44:58;;;;;;;6.55;2.92;;;10.30;99.90;;;;;;5045004;28;20117;-54
2022/09/14 02:47:42;;;;;;;7.78;2.83;;;10.40;99.90;;;;;;5046017;28;20046;-50
2022/09/14 02:50:20;;;;;;;7.15;2.63;;;10.40;99.90;;;;;;5043199;28;20124;-49
2022/09/14 02:52:53;;;;;;;7.30;2.70;;;10.40;99.90;;;;;;5043097;28;20376;-52
2022/09/14 02:55:22;;;;;;;8.23;2.58;;;10.60;99.90;;;;;;5046220;28;20451;-52
2022/09/14 02:58:07;;;;;;;7.68;3.10;;;10.60;99.90;;;;;;5045920;28;20051;-53
2022/09/14 03:00:37;;;;;;;6.95;2.47;;;10.70;99.90;;;;;;5046190;28;20136;-48
2022/09/14 03:03:04;;;;;;;9.15;3.30;;;10.70;99.90;;;;;;5046475;28;20075;-52
2022/09/14 03:05:31;;;;;;;14.15;2.78;;;10.80;99.90;;;;;;5046178;28;20526;-48
2022/09/14 03:07:58;;;;;;;7.97;2.45;;;10.80;99.90;;;;;;5045735;28;20052;-51
2022/09/14 03:10:23;;;;;;;9.25;2.33;;;10.70;99.90;;;;;;5046447;28;20048;-52
2022/09/14 03:12:49;;;;;;;7.72;3.38;;;10.70;99.90;;;;;;5046468;28;20068;-51
2022/09/14 03:15:15;;;;;;;8.32;2.47;;;11.60;99.90;;;;;;5045873;28;20041;-50
2022/09/14 03:17:48;;;;;;;8.77;2.97;;;10.90;99.90;;;;;;5046240;28;20040;-53
2022/09/14 03:20:19;;;;;;;6.43;2.78;;;11.00;99.90;;;;;;5045909;28;20057;-52
2022/09/14 03:22:45;;;;;;;4.97;2.60;;;11.00;99.90;;;;;;5046290;28;20040;-52
2022/09/14 03:25:11;;;;;;;7.63;2.75;;;11.50;99.90;;;;;;5046005;28;20452;-52
2022/09/14 03:27:38;;;;;;;6.93;2.75;;;11.10;99.90;;;;;;5045795;28;20489;-50
2022/09/14 03:30:05;;;;;;;6.90;2.78;;;11.10;99.90;;;;;;5046083;28;20628;-53
2022/09/14 03:32:31;;;;;;;5.78;2.70;;;11.20;99.90;;;;;;5046501;28;20079;-52
2022/09/14 03:34:57;;;;;;;3.95;2.47;;;11.10;99.90;;;;;;5046325;28;20060;-52
2022/09/14 03:37:24;;;;;;;7.70;2.80;;;11.20;99.90;;;;;;5046421;28;20483;-50
2022/09/14 03:39:49;;;;;;;4.05;2.10;;;11.20;99.90;;;;;;5046324;28;20297;-53
2022/09/14 03:42:15;;;;;;;5.95;3.08;;;11.30;99.90;;;;;;5045844;28;20049;-52
2022/09/14 03:44:40;;;;;;;5.78;2.47;;;11.50;99.90;;;;;;5045682;28;20045;-51
2022/09/14 03:47:07;;;;;;;11.57;2.33;;;11.40;99.90;;;;;;5046217;28;20037;-52
2022/09/14 03:49:33;;;;;;;5.53;2.65;;;11.30;99.90;;;;;;5046188;28;20255;-52
2022/09/14 03:51:59;;;;;;;5.32;2.30;;;12.00;99.90;;;;;;5045630;28;20510;-51
2022/09/14 03:54:25;;;;;;;5.93;2.90;;;11.40;99.90;;;;;;5045292;28;20651;-50
2022/09/14 03:56:52;;;;;;;4.35;2.17;;;11.40;99.90;;;;;;5045480;28;20124;-48
2022/09/14 03:59:18;;;;;;;6.95;2.50;;;11.40;99.90;;;;;;5027364;28;20123;-52
2022/09/14 04:01:44;;;;;;;3.92;2.17;;;11.50;99.90;;;;;;5045741;28;20052;-51
2022/09/14 04:04:10;;;;;;;4.32;2.38;;;11.40;99.90;;;;;;5045347;28;20323;-51
2022/09/14 04:06:36;;;;;;;6.90;2.58;;;11.60;99.90;;;;;;5045786;28;20124;-49
2022/09/14 04:09:02;;;;;;;5.38;2.30;;;11.50;99.90;;;;;;5045230;28;20400;-51
2022/09/14 04:11:30;;;;;;;6.50;2.38;;;11.60;99.90;;;;;;5045492;28;20052;-50
2022/09/14 04:14:00;;;;;;;6.78;2.33;;;11.60;99.90;;;;;;5045889;28;20052;-51
2022/09/14 04:16:27;;;;;;;8.05;2.53;;;11.90;99.90;;;;;;5045574;28;20060;-50
2022/09/14 04:18:53;;;;;;;6.65;2.63;;;11.60;99.90;;;;;;5027619;28;20463;-50
2022/09/14 04:21:21;;;;;;;5.65;2.58;;;11.60;99.90;;;;;;5047232;28;20048;-50
2022/09/14 04:23:47;;;;;;;6.30;2.25;;;11.60;99.90;;;;;;5049329;28;20040;-52
2022/09/14 04:26:16;;;;;;;2.85;2.08;;;11.60;99.90;;;;;;5048972;28;20036;-50
2022/09/14 04:28:42;;;;;;;7.53;2.70;;;12.20;99.90;;;;;;5049214;28;20048;-53
2022/09/14 04:31:10;;;;;;;6.97;2.58;;;12.00;99.90;;;;;;5048318;28;20487;-51
2022/09/14 04:33:37;;;;;;;5.40;3.00;;;11.70;99.90;;;;;;5048715;28;20052;-52
2022/09/14 04:36:08;;;;;;;7.88;2.15;;;11.60;99.90;;;;;;5048676;28;20179;-52
2022/09/14 04:38:35;;;;;;;4.80;2.47;;;11.70;99.90;;;;;;5049001;28;20063;-50
2022/09/14 04:41:05;;;;;;;4.43;2.50;;;12.00;99.90;;;;;;5048686;28;20767;-53
2022/09/14 04:43:30;;;;;;;6.78;2.50;;;11.70;99.90;;;;;;5048702;28;20107;-51
2022/09/14 04:46:04;;;;;;;5.53;1.92;;;11.70;99.90;;;;;;5048800;28;20076;-52
2022/09/14 04:48:34;;;;;;;4.88;1.90;;;9.90;99.90;;;;;;5048734;28;20510;-53
2022/09/14 04:51:15;;;;;;;8.38;2.58;;;11.70;99.90;;;;;;5048722;28;20483;-49
2022/09/14 04:53:41;;;;;;;5.70;2.38;;;11.80;99.90;;;;;;5049030;28;20040;-53
2022/09/14 04:56:09;;;;;;;4.43;2.38;;;11.80;99.90;;;;;;5030276;28;20399;-53
2022/09/14 04:58:40;;;;;;;6.75;2.20;;;11.70;99.90;;;;;;5048774;28;20044;-52
2022/09/14 05:01:14;;;;;;;3.75;2.30;;;12.60;99.90;;;;;;5048591;28;20228;-52
2022/09/14 05:03:40;;;;;;;6.78;2.63;;;11.80;99.90;;;;;;5048463;28;20513;-53
2022/09/14 05:06:18;;;;;;;4.43;2.00;;;11.80;99.90;;;;;;5048526;28;20045;-52
2022/09/14 05:08:44;;;;;;;7.22;2.63;;;12.00;99.90;;;;;;5048080;28;20410;-52
2022/09/14 05:11:15;;;;;;;7.57;2.38;;;11.80;99.90;;;;;;5048145;28;20045;-53
2022/09/14 05:13:40;;;;;;;6.78;2.22;;;12.00;99.90;;;;;;5048786;28;20562;-52
2022/09/14 05:16:18;;;;;;;7.35;2.55;;;11.80;99.90;;;;;;5048685;28;20143;-53
2022/09/14 05:18:45;;;;;;;5.95;2.50;;;11.90;99.90;;;;;;5048615;28;20129;-52
2022/09/14 05:21:13;;;;;;;6.38;2.55;;;12.30;99.90;;;;;;5047936;28;20670;-53
2022/09/14 05:23:39;;;;;;;7.78;2.70;;;12.00;99.90;;;;;;5047818;28;20616;-53
2022/09/14 05:26:06;;;;;;;8.45;2.35;;;12.00;99.90;;;;;;5047961;28;20083;-53
2022/09/14 05:28:33;;;;;;;6.75;3.15;;;12.20;99.90;;;;;;5047544;28;20506;-53
2022/09/14 05:31:02;;;;;;;5.90;2.28;;;12.00;99.90;;;;;;5047860;28;20044;-52
2022/09/14 05:33:27;;;;;;;5.47;2.22;;;12.00;99.90;;;;;;5046341;28;20049;-50
2022/09/14 05:36:00;;;;;;;5.70;1.55;;;12.00;99.90;;;;;;5047071;28;20045;-52
2022/09/14 05:38:28;;;;;;;9.63;2.63;;;12.00;99.90;;;;;;5045247;28;20059;-51
2022/09/14 05:40:54;;;;;;;4.85;2.00;;;12.10;99.90;;;;;;5047280;28;20502;-52
2022/09/14 05:43:21;;;;;;;4.53;2.03;;;12.10;99.90;;;;;;5046808;28;20056;-53
2022/09/14 05:45:47;;;;;;;5.70;2.25;;;12.00;99.90;;;;;;5047601;28;20049;-52
2022/09/14 05:48:13;;;;;;;5.97;2.72;;;12.20;99.90;;;;;;5046972;28;20405;-52
2022/09/14 05:50:39;;;;;;;4.35;1.98;;;12.30;99.90;;;;;;5047136;28;20033;-50
2022/09/14 05:53:05;;;;;;;7.57;2.50;;;12.30;99.90;;;;;;5046855;28;20032;-52
2022/09/14 05:55:30;;;;;;;6.32;2.00;;;13.30;99.90;;;;;;5046338;28;20553;-52
2022/09/14 05:57:56;;;;;;;7.50;2.17;;;12.40;99.90;;;;;;5046878;28;20786;-53
2022/09/14 06:00:21;;;;;;;6.15;2.22;;;13.10;99.90;;;;;;5046452;28;20126;-52
2022/09/14 06:02:52;;;;;;;4.75;2.05;;;12.50;99.90;;;;;;5046760;28;20041;-54
2022/09/14 06:05:18;;;;;;;5.40;2.10;;;12.60;99.90;;;;;;5046325;28;20040;-52
2022/09/14 06:07:44;;;;;;;4.50;1.90;;;12.60;99.90;;;;;;5046451;28;20387;-53
2022/09/14 06:10:11;;;;;;;8.98;2.67;;;12.60;99.90;;;;;;5046707;28;20049;-53
2022/09/14 06:12:37;;;;;;;4.03;1.65;;;12.70;99.90;;;;;;5046426;28;20037;-53
2022/09/14 06:15:03;;;;;;;5.32;2.25;;;12.80;99.90;;;;;;5046657;28;20450;-53
2022/09/14 06:17:30;;;;;;;8.10;2.00;;;12.80;99.90;;;;;;5046616;28;20041;-52
2022/09/14 06:19:56;;;;;;;8.65;2.42;;;12.80;99.90;;;;;;5047297;28;20049;-53
2022/09/14 06:22:21;;;;;;;3.80;2.17;;;12.90;99.90;;;;;;5046601;28;20604;-52
2022/09/14 06:24:47;;;;;;;8.60;2.35;;;13.00;99.90;;;;;;5046507;28;20044;-54
2022/09/14 06:27:14;;;;;;;5.90;1.90;;;13.10;99.90;;;;;;5046603;28;20452;-53
2022/09/14 06:29:40;;;;;;;4.63;2.08;;;13.20;99.90;;;;;;5045604;28;20509;-54
2022/09/14 06:32:05;;;;;;;5.32;1.77;;;13.10;99.90;;;;;;5046572;28;20409;-53
2022/09/14 06:34:31;;;;;;;4.43;1.77;;;13.30;99.90;;;;;;5045943;28;20041;-53
2022/09/14 06:36:57;;;;;;;7.47;1.63;;;13.40;99.90;;;;;;5045976;28;20036;-53
2022/09/14 06:39:23;;;;;;;7.88;2.00;;;13.50;99.90;;;;;;5045491;28;20491;-53
2022/09/14 06:41:50;;;;;;;7.30;1.80;;;13.60;99.90;;;;;;5028130;28;20044;-53
2022/09/14 06:44:16;;;;;;;5.85;2.25;;;13.70;99.90;;;;;;5045687;28;20502;-52
2022/09/14 06:46:43;;;;;;;9.15;2.70;;;14.00;99.90;;;;;;5046112;28;20086;-52
2022/09/14 06:49:11;;;;;;;9.05;1.85;;;14.30;99.90;;;;;;5046277;28;20033;-52
2022/09/14 06:51:42;;;;;;;4.47;1.63;;;14.20;99.90;;;;;;5046142;28;20040;-52
2022/09/14 06:54:11;;;;;;;3.60;1.63;;;14.40;99.90;;;;;;5046238;28;20149;-49
2022/09/14 06:56:39;;;;;;;4.90;1.67;;;14.50;99.90;;;;;;5045807;28;20049;-52
2022/09/14 06:59:06;;;;;;;5.80;1.77;;;14.60;99.90;;;;;;5046422;28;20119;-53
2022/09/14 07:01:32;;;;;;;3.53;1.63;;;14.70;99.90;;;;;;5046057;28;20052;-56
2022/09/14 07:04:00;;;;;;;4.13;1.30;;;14.80;99.90;;;;;;5047039;28;20454;-55
2022/09/14 07:06:29;;;;;;;3.63;1.48;;;14.90;99.90;;;;;;5046671;28;20124;-49
2022/09/14 07:08:55;;;;;;;4.57;1.42;;;15.00;99.90;;;;;;5044968;28;20269;-53
2022/09/14 07:11:24;;;;;;;7.32;1.65;;;15.10;99.90;;;;;;5045508;28;20449;-53
2022/09/14 07:13:53;;;;;;;5.80;1.48;;;15.30;99.90;;;;;;5046413;28;20136;-51
2022/09/14 07:16:19;;;;;;;4.95;1.13;;;15.40;99.90;;;;;;5045680;28;20578;-52
2022/09/14 07:18:45;;;;;;;4.80;1.67;;;15.50;99.90;;;;;;5045228;28;20150;-51
2022/09/14 07:21:13;;;;;;;6.68;1.70;;;15.50;99.90;;;;;;5045596;28;20076;-54
2022/09/14 07:23:42;;;;;;;5.07;1.45;;;15.60;99.90;;;;;;5045502;28;20049;-52
2022/09/14 07:26:38;;;;;;;3.45;1.05;;;15.70;99.90;;;;;;5045279;28;20483;-54
2022/09/14 07:29:06;;;;;;;7.53;1.60;;;15.90;99.90;;;;;;5043713;28;20052;-54
2022/09/14 07:31:36;;;;;;;6.75;0.90;;;16.10;99.90;;;;;;5045721;28;20048;-54
2022/09/14 07:34:03;;;;;;;5.88;0.98;;;16.20;99.90;;;;;;5026222;28;20080;-53
2022/09/14 07:36:31;;;;;;;7.13;1.25;;;16.40;99.90;;;;;;5026623;28;20088;-53
2022/09/14 07:38:57;;;;;;;3.70;0.77;;;16.50;99.90;;;;;;5042522;28;20142;-53
2022/09/14 07:41:25;;;;;;;6.40;0.57;;;16.80;99.90;;;;;;5045209;28;20140;-52
2022/09/14 07:43:58;;;;;;;4.70;0.35;;;17.00;99.90;;;;;;5044744;28;20045;-53
2022/09/14 07:46:25;;;;;;;2.85;0.55;;;17.20;99.90;;;;;;5043830;28;20037;-53
2022/09/14 07:49:01;;;;;;;3.70;0.35;;;17.40;99.90;;;;;;5044823;28;20037;-51
2022/09/14 07:51:28;;;;;;;3.95;0.65;;;17.50;99.90;;;;;;5044203;28;20367;-50
2022/09/14 07:53:55;;;;;;;4.55;0.43;;;17.50;99.90;;;;;;5044893;28;20045;-51
2022/09/14 07:56:21;;;;;;;2.33;0.20;;;17.60;99.90;;;;;;5047387;28;20546;-51
2022/09/14 07:58:51;;;;;;;5.18;0.30;;;17.50;99.90;;;;;;5027838;28;20597;-52
2022/09/14 08:01:17;;;;;;;3.08;0.35;;;17.60;99.90;;;;;;5046114;28;20088;-53
2022/09/14 08:03:44;;;;;;;1.77;0.20;;;17.60;99.90;;;;;;5048716;28;20068;-52
2022/09/14 08:06:11;;;;;;;2.28;0.10;;;17.90;99.90;;;;;;5048591;28;20082;-52
2022/09/14 08:08:40;;;;;;;4.22;0.32;;;17.70;99.90;;;;;;5048293;28;20446;-52
2022/09/14 08:11:12;;;;;;;2.55;0.22;;;17.80;99.90;;;;;;5048569;28;20045;-53
2022/09/14 08:13:40;;;;;;;2.50;0.52;;;17.90;99.90;;;;;;5046507;28;20040;-51
2022/09/14 08:16:07;;;;;;;2.90;0.20;;;18.00;99.90;;;;;;5048824;28;20041;-52
2022/09/14 08:18:34;;;;;;;3.72;0.20;;;18.00;99.90;;;;;;5047975;28;20037;-51
2022/09/14 08:21:07;;;;;;;3.10;0.20;;;18.10;99.90;;;;;;5047749;28;20044;-52
2022/09/14 08:23:34;;;;;;;4.07;0.30;;;18.00;99.90;;;;;;5048190;28;20068;-52
2022/09/14 08:26:21;;;;;;;3.85;0.30;;;18.00;99.90;;;;;;5044965;28;20040;-52
2022/09/14 08:28:49;;;;;;;5.07;0.50;;;18.00;99.90;;;;;;5047364;28;20033;-52
2022/09/14 08:31:18;;;;;;;2.85;0.55;;;18.00;99.90;;;;;;5028851;28;20131;-49
2022/09/14 08:33:46;;;;;;;3.72;0.20;;;18.00;99.90;;;;;;5048311;28;20148;-51
2022/09/14 08:36:14;;;;;;;4.47;0.57;;;18.10;99.90;;;;;;5044596;28;20041;-51
2022/09/14 08:38:40;;;;;;;2.45;0.25;;;18.20;99.90;;;;;;5046394;28;20044;-54
2022/09/14 08:41:27;;;;;;;3.55;0.40;;;18.40;99.90;;;;;;5047418;28;20052;-53
2022/09/14 08:43:53;;;;;;;6.13;1.48;;;18.90;99.90;;;;;;5045254;28;20037;-53
2022/09/14 08:46:33;;;;;;;5.38;0.30;;;19.30;99.90;;;;;;5046807;28;20048;-52
2022/09/14 08:49:02;;;;;;;6.70;0.30;;;19.60;99.90;;;;;;5044951;28;20455;-51
2022/09/14 08:51:29;;;;;;;3.00;0.50;;;19.90;99.90;;;;;;5048082;28;20044;-52
2022/09/14 08:53:58;;;;;;;6.97;0.20;;;20.00;99.90;;;;;;5047554;28;20204;-54
2022/09/14 08:56:29;;;;;;;1.90;0.20;;;20.10;99.90;;;;;;5045671;28;20041;-53
2022/09/14 08:59:16;;;;;;;4.13;0.25;;;20.20;99.90;;;;;;5047256;28;20037;-53
2022/09/14 09:02:18;;;;;;;5.07;0.28;;;20.50;99.90;;;;;;5046655;28;20055;-54
2022/09/14 09:05:19;;;;;;;3.17;0.40;;;21.20;99.90;;;;;;5045924;28;20052;-54
2022/09/14 09:07:53;;;;;;;5.00;0.32;;;21.60;99.90;;;;;;5043878;28;20048;-53
2022/09/14 09:10:20;;;;;;;8.55;0.60;;;21.60;99.90;;;;;;5044237;28;20048;-54
2022/09/14 09:12:50;;;;;;;5.28;0.30;;;21.50;99.90;;;;;;5046389;28;20072;-53
2022/09/14 09:15:42;;;;;;;5.30;0.57;;;21.50;99.90;;;;;;5047132;28;20045;-52
2022/09/14 09:18:17;;;;;;;3.38;0.35;;;21.80;99.90;;;;;;5044587;28;20052;-54
2022/09/14 09:20:49;;;;;;;6.07;1.20;;;22.00;99.90;;;;;;5047031;28;20486;-54
2022/09/14 09:23:18;;;;;;;3.45;0.38;;;22.00;99.90;;;;;;5045122;28;20037;-51
2022/09/14 09:25:55;;;;;;;6.63;0.47;;;22.00;99.90;;;;;;5047335;28;20083;-53
2022/09/14 09:28:23;;;;;;;5.28;0.57;;;21.90;99.90;;;;;;5045388;28;20106;-51
2022/09/14 09:30:49;;;;;;;4.90;0.30;;;21.80;99.90;;;;;;5046955;28;20049;-53
2022/09/14 09:33:20;;;;;;;3.03;0.35;;;21.60;99.90;;;;;;5046969;28;20060;-52
2022/09/14 09:35:46;;;;;;;5.63;0.30;;;21.40;99.90;;;;;;5044079;28;20131;-52
2022/09/14 09:38:17;;;;;;;5.70;0.50;;;21.40;99.90;;;;;;5047004;28;20147;-51
2022/09/14 09:40:58;;;;;;;6.07;0.50;;;21.30;99.90;;;;;;5029684;28;20053;-54
2022/09/14 09:43:23;;;;;;;4.72;0.40;;;21.30;99.90;;;;;;5047891;28;20059;-52
2022/09/14 09:45:53;;;;;;;7.05;0.40;;;21.80;99.90;;;;;;5047161;28;20301;-54
2022/09/14 09:48:23;;;;;;;4.43;0.35;;;22.00;99.90;;;;;;5047538;28;20063;-50
2022/09/14 09:51:02;;;;;;;5.22;0.38;;;22.30;99.90;;;;;;5047212;28;20094;-53
2022/09/14 09:53:28;;;;;;;4.85;0.45;;;22.60;97.70;;;;;;5047504;28;20375;-55
2022/09/14 09:55:55;;;;;;;7.28;0.60;;;22.70;97.20;;;;;;5046183;28;20128;-54
2022/09/14 09:58:32;;;;;;;2.85;0.30;;;22.90;96.00;;;;;;5047469;28;20052;-54
2022/09/14 10:01:00;;;;;;;6.82;0.73;;;23.20;95.70;;;;;;5046765;28;20179;-55
2022/09/14 10:03:29;;;;;;;5.22;0.55;;;23.40;95.30;;;;;;5047300;28;20566;-54
2022/09/14 10:06:08;;;;;;;3.63;0.20;;;23.50;95.10;;;;;;5045425;28;20391;-55
2022/09/14 10:08:41;;;;;;;3.45;0.13;;;23.40;94.30;;;;;;5044019;28;20138;-38
2022/09/14 10:11:36;;;;;;;3.40;0.35;;;23.30;92.80;;;;;;5030186;28;20048;-38
2022/09/14 10:14:03;;;;;;;4.57;0.30;;;23.20;91.60;;;;;;5037579;28;20134;-36
2022/09/14 10:16:37;;;;;;;2.08;0.22;;;23.00;92.10;;;;;;5039263;28;20036;-38
2022/09/14 10:19:17;;;;;;;2.60;0.40;;;22.90;91.80;;;;;;5038896;28;20143;-39
2022/09/14 10:22:28;;;;;;;6.05;0.35;;;22.90;91.60;;;;;;5039848;28;20128;-39
2022/09/14 10:24:58;;;;;;;4.78;0.70;;;22.80;90.60;;;;;;4993793;28;20076;-40
2022/09/14 10:27:31;;;;;;;4.53;0.30;;;22.80;91.70;;;;;;5039328;28;20021;-39
2022/09/14 10:30:01;;;;;;;5.55;0.30;;;22.70;91.20;;;;;;5039622;28;20044;-40
2022/09/14 10:32:29;;;;;;;3.42;1.08;;;22.60;91.70;;;;;;5038873;28;20091;-40
2022/09/14 10:34:55;;;;;;;2.30;0.20;;;22.50;91.70;;;;;;5039529;28;20191;-39
2022/09/14 10:37:34;;;;;;;5.43;0.30;;;22.40;91.60;;;;;;5040062;28;20458;-38
2022/09/14 10:40:24;;;;;;;5.45;0.20;;;22.40;91.50;;;;;;5040303;28;20041;-38
2022/09/14 10:43:22;;;;;;;4.53;0.35;;;22.40;91.20;;;;;;5038607;28;20048;-39
2022/09/14 10:45:51;;;;;;;2.90;0.22;;;24.10;91.50;;;;;;5031335;28;20045;-38
2022/09/14 10:48:53;;;;;;;2.83;0.50;;;22.40;91.30;;;;;;5038801;28;20462;-39
2022/09/14 10:51:57;;;;;;;6.45;0.65;;;22.50;91.40;;;;;;5038124;28;20048;-38
2022/09/14 10:54:50;;;;;;;4.60;0.50;;;22.60;91.40;;;;;;5030388;28;20550;-39
2022/09/14 10:57:58;;;;;;;3.45;0.40;;;22.30;91.00;;;;;;5038836;28;20052;-44
2022/09/14 11:00:28;;;;;;;4.70;0.47;;;22.10;91.70;;;;;;5038014;28;20044;-39
2022/09/14 11:03:21;;;;;;;3.13;0.30;;;22.00;92.00;;;;;;5020938;28;20444;-38
2022/09/14 11:06:24;;;;;;;3.47;0.40;;;22.00;91.20;;;;;;5038882;28;20130;-38
2022/09/14 11:08:59;;;;;;;4.15;0.60;;;22.10;91.00;;;;;;5037771;28;20061;-41
2022/09/14 11:11:43;;;;;;;2.88;0.60;;;22.20;91.80;;;;;;5039489;28;20057;-38
2022/09/14 11:14:30;;;;;;;2.47;0.43;;;22.40;90.70;;;;;;5040272;28;20045;-39
2022/09/14 11:17:27;;;;;;;6.75;0.45;;;22.60;91.00;;;;;;5040198;28;20029;-41
2022/09/14 11:20:17;;;;;;;2.95;0.30;;;22.80;88.60;;;;;;5039241;28;20040;-42
2022/09/14 11:22:56;;;;;;;5.90;0.30;;;23.10;89.00;;;;;;5039622;28;20037;-39
2022/09/14 11:25:48;;;;;;;6.43;0.63;;;23.40;87.80;;;;;;5038668;28;20423;-41
2022/09/14 11:28:44;;;;;;;3.93;0.40;;;23.40;86.00;;;;;;5021854;28;20539;-39
2022/09/14 11:31:17;;;;;;;6.50;0.52;;;23.50;88.20;;;;;;5038429;28;20044;-39
2022/09/14 11:34:09;;;;;;;4.70;0.30;;;23.40;87.30;;;;;;5040227;28;20116;-42
2022/09/14 11:36:43;;;;;;;3.97;0.20;;;23.20;86.90;;;;;;5039153;28;20538;-37
2022/09/14 11:39:37;;;;;;;2.92;0.30;;;23.00;87.80;;;;;;5038643;28;20151;-37
2022/09/14 11:42:33;;;;;;;3.15;0.20;;;22.80;87.60;;;;;;5037941;28;20128;-42
2022/09/14 11:45:13;;;;;;;6.05;0.30;;;22.60;88.00;;;;;;5039059;28;20479;-40
2022/09/14 11:47:45;;;;;;;2.85;0.30;;;22.40;90.10;;;;;;5039371;28;20120;-37
2022/09/14 11:50:16;;;;;;;3.85;0.40;;;22.20;89.70;;;;;;5040326;28;20036;-38
2022/09/14 11:52:42;;;;;;;6.80;0.85;;;22.10;89.50;;;;;;5038410;28;20578;-40
2022/09/14 11:55:14;;;;;;;2.65;0.28;;;22.10;89.90;;;;;;5038675;28;20044;-38
2022/09/14 11:57:42;;;;;;;;;;;22.00;88.40;;;;;;5038017;28;20535;-40
2022/09/14 12:00:32;;;;;;;2.53;0.20;;;22.00;86.30;;;;;;5037605;28;19972;-40
2022/09/14 12:03:16;;;;;;;1.98;0.30;;;22.00;88.70;;;;;;5038445;28;20029;-40
2022/09/14 12:05:43;;;;;;;5.88;0.22;;;22.10;89.10;;;;;;5026640;28;20028;-39
2022/09/14 12:08:38;;;;;;;5.20;0.22;;;22.20;88.10;;;;;;5059211;28;20055;-39
2022/09/14 12:11:25;;;;;;;2.25;0.30;;;22.20;87.00;;;;;;5044919;28;20068;-39
2022/09/14 12:14:29;;;;;;;7.20;0.60;;;22.10;87.00;;;;;;5044674;28;20052;-39
2022/09/14 12:17:33;;;;;;;2.65;0.20;;;22.10;86.90;;;;;;5044760;28;20135;-39
2022/09/14 12:20:19;;;;;;;4.35;0.40;;;22.00;87.90;;;;;;5002734;28;20098;-39
2022/09/14 12:22:45;;;;;;;1.85;0.60;;;21.90;87.80;;;;;;5002975;28;20050;-39
2022/09/14 12:25:16;;;;;;;5.95;0.30;;;21.70;88.60;;;;;;5028716;28;20360;-39
2022/09/14 12:27:44;;;;;;;5.25;0.20;;;21.60;88.60;;;;;;5045251;28;20044;-39
2022/09/14 12:30:32;;;;;;;4.85;0.20;;;21.50;88.10;;;;;;5044375;28;20432;-39
2022/09/14 12:32:58;;;;;;;6.05;0.50;;;21.50;89.20;;;;;;5044418;28;20041;-39
2022/09/14 12:35:33;;;;;;;3.92;0.32;;;21.50;89.80;;;;;;5045085;28;20290;-39
2022/09/14 12:38:17;;;;;;;4.75;0.20;;;21.50;89.40;;;;;;5044902;28;20060;-39
2022/09/14 12:40:43;;;;;;;3.13;0.45;;;21.50;89.60;;;;;;5045169;28;20118;-39
2022/09/14 12:43:34;;;;;;;1.83;0.20;;;21.50;90.00;;;;;;5048098;28;20049;-39
2022/09/14 12:46:01;;;;;;;5.03;0.20;;;21.40;89.70;;;;;;5048124;28;20098;-39
2022/09/14 12:48:48;;;;;;;4.15;0.40;;;21.40;90.20;;;;;;5048157;28;20037;-39
2022/09/14 12:51:38;;;;;;;3.97;0.20;;;21.30;89.90;;;;;;5048261;28;20051;-39
2022/09/14 12:54:09;;;;;;;4.38;0.20;;;21.20;90.10;;;;;;5048832;28;20065;-39
2022/09/14 12:57:03;;;;;;;4.20;0.32;;;21.20;90.10;;;;;;5048472;28;20092;-39
2022/09/14 13:00:06;;;;;;;5.55;0.80;;;21.30;89.60;;;;;;5048190;28;20473;-39
2022/09/14 13:02:41;;;;;;;5.93;0.30;;;21.40;87.90;;;;;;5047725;28;20474;-39
2022/09/14 13:05:21;;;;;;;4.40;0.57;;;21.40;88.50;;;;;;5030132;28;20395;-39
2022/09/14 13:07:47;;;;;;;3.95;0.30;;;21.30;88.90;;;;;;5048096;28;20124;-39
2022/09/14 13:10:37;;;;;;;2.47;0.20;;;21.30;89.20;;;;;;5047592;28;20483;-39
2022/09/14 13:13:13;;;;;;;2.58;0.10;;;21.30;87.90;;;;;;5047059;28;20053;-39
2022/09/14 13:15:50;;;;;;;3.17;0.20;;;21.30;88.10;;;;;;5048236;28;20041;-39
2022/09/14 13:18:15;;;;;;;5.63;0.68;;;21.30;88.00;;;;;;5029629;28;20057;-39